createdAt,value
2023-02-06T00:03:29.496Z,102675.02
2023-02-06T00:08:31.038Z,102670.25
2023-02-06T00:13:32.881Z,102664.00
2023-02-06T00:18:34.360Z,102660.91
2023-02-06T00:23:36.032Z,102653.89
2023-02-06T00:28:37.997Z,102658.61
2023-02-06T00:33:40.023Z,102659.55
2023-02-06T00:38:41.546Z,102662.00
2023-02-06T00:43:43.733Z,102666.96
2023-02-06T00:48:45.318Z,102664.44
2023-02-06T00:53:47.262Z,102662.69
2023-02-06T00:58:49.692Z,102660.48
2023-02-06T01:03:51.149Z,102658.55
2023-02-06T01:08:52.949Z,102655.92
2023-02-06T01:13:54.632Z,102643.34
2023-02-06T01:18:56.189Z,102637.63
2023-02-06T01:23:57.811Z,102631.91
2023-02-06T01:28:59.380Z,102629.90
2023-02-06T01:34:01.194Z,102621.84
2023-02-06T01:39:02.813Z,102629.27
2023-02-06T01:44:17.086Z,102629.45
2023-02-06T01:49:30.567Z,102631.48
2023-02-06T01:54:32.422Z,102632.86
2023-02-06T01:59:35.981Z,102630.21
2023-02-06T02:04:37.517Z,102618.44
2023-02-06T02:09:39.239Z,102615.12
2023-02-06T02:14:43.823Z,102608.08
2023-02-06T02:19:51.727Z,102617.74
2023-02-06T02:25:18.306Z,102626.66
2023-02-06T02:30:35.213Z,102629.98
2023-02-06T02:35:36.953Z,102623.05
2023-02-06T02:40:54.755Z,102627.90
2023-02-06T02:46:08.914Z,102629.94
2023-02-06T02:51:11.508Z,102632.77
2023-02-06T02:56:21.049Z,102637.48
2023-02-06T03:01:28.864Z,102637.80
2023-02-06T03:06:39.110Z,102641.26
2023-02-06T03:11:47.034Z,102650.21
2023-02-06T03:16:54.637Z,102650.28
2023-02-06T03:21:56.181Z,102642.86
2023-02-06T03:27:01.664Z,102637.36
2023-02-06T03:32:13.598Z,102631.73
2023-02-06T03:37:15.301Z,102624.16
2023-02-06T03:42:17.855Z,102628.13
2023-02-06T03:47:22.400Z,102626.77
2023-02-06T03:52:28.864Z,102634.54
2023-02-06T03:57:33.293Z,102633.70
2023-02-06T04:02:36.526Z,102634.23
2023-02-06T04:07:38.272Z,102638.77
2023-02-06T04:12:40.056Z,102640.23
2023-02-06T04:17:57.498Z,102640.80
2023-02-06T04:23:01.239Z,102632.50
2023-02-06T04:28:02.949Z,102631.06
2023-02-06T04:33:05.071Z,102632.16
2023-02-06T04:38:06.547Z,102627.77
2023-02-06T04:43:08.197Z,102636.34
2023-02-06T04:48:09.667Z,102631.43
2023-02-06T04:53:11.152Z,102629.20
2023-02-06T04:58:12.672Z,102621.38
2023-02-06T05:03:14.184Z,102612.45
2023-02-06T05:08:15.661Z,102609.45
2023-02-06T05:13:17.172Z,102616.22
2023-02-06T05:18:19.050Z,102620.84
2023-02-06T05:23:20.568Z,102627.45
2023-02-06T05:28:22.251Z,102628.67
2023-02-06T05:33:24.074Z,102636.80
2023-02-06T05:38:25.560Z,102635.95
2023-02-06T05:43:27.212Z,102636.85
2023-02-06T05:48:30.608Z,102635.11
2023-02-06T05:53:32.200Z,102642.75
2023-02-06T05:58:34.153Z,102646.48
2023-02-06T06:03:37.316Z,102646.10
2023-02-06T06:08:38.824Z,102647.15
2023-02-06T06:13:40.373Z,102646.83
2023-02-06T06:18:41.855Z,102649.99
2023-02-06T06:23:43.399Z,102652.20
2023-02-06T06:28:44.929Z,102647.61
2023-02-06T06:33:46.663Z,102649.83
2023-02-06T06:38:48.313Z,102650.33
2023-02-06T06:43:51.511Z,102652.39
2023-02-06T06:48:53.198Z,102658.61
2023-02-06T06:53:55.227Z,102660.48
2023-02-06T06:58:56.702Z,102660.45
2023-02-06T07:03:59.475Z,102662.27
2023-02-06T07:09:00.992Z,102673.09
2023-02-06T07:14:03.859Z,102672.48
2023-02-06T07:19:05.479Z,102671.33
2023-02-06T07:24:07.301Z,102677.32
2023-02-06T07:29:09.262Z,102674.34
2023-02-06T07:34:11.074Z,102677.89
2023-02-06T07:39:12.799Z,102670.55
2023-02-06T07:44:14.505Z,102671.24
2023-02-06T07:49:16.160Z,102673.23
2023-02-06T07:54:19.920Z,102678.23
2023-02-06T07:59:22.504Z,102680.27
2023-02-06T08:04:24.056Z,102682.46
2023-02-06T08:09:25.568Z,102689.06
2023-02-06T08:14:28.558Z,102688.24
2023-02-06T08:19:30.052Z,102691.92
2023-02-06T08:24:31.903Z,102686.06
2023-02-06T08:29:42.243Z,102686.48
2023-02-06T08:34:44.525Z,102686.35
2023-02-06T08:39:46.002Z,102679.45
2023-02-06T08:44:47.568Z,102679.06
2023-02-06T08:49:50.880Z,102684.45
2023-02-06T08:54:52.961Z,102690.45
2023-02-06T08:59:54.492Z,102691.35
2023-02-06T09:04:56.028Z,102690.59
2023-02-06T09:09:57.539Z,102691.13
2023-02-06T09:14:59.050Z,102691.29
2023-02-06T09:20:01.598Z,102691.30
2023-02-06T09:25:03.205Z,102695.23
2023-02-06T09:30:05.460Z,102698.75
2023-02-06T09:35:07.113Z,102701.10
2023-02-06T09:40:12.725Z,102697.05
2023-02-06T09:45:20.137Z,102691.87
2023-02-06T09:51:03.026Z,102692.96
2023-02-06T09:56:32.574Z,102690.08
2023-02-06T10:02:13.717Z,102689.05
2023-02-06T10:07:52.518Z,102698.89
2023-02-06T10:13:02.161Z,102694.72
2023-02-06T10:18:23.892Z,102682.98
2023-02-06T10:23:43.262Z,102680.04
2023-02-06T10:28:49.888Z,102673.87
2023-02-06T10:34:13.470Z,102666.17
2023-02-06T10:39:42.720Z,102662.02
2023-02-06T10:45:19.927Z,102661.55
2023-02-06T10:50:49.344Z,102657.66
2023-02-06T10:55:56.759Z,102653.77
2023-02-06T11:01:00.859Z,102653.43
2023-02-06T11:06:02.948Z,102651.23
2023-02-06T11:11:25.144Z,102651.94
2023-02-06T11:16:29.146Z,102653.38
2023-02-06T11:21:51.040Z,102642.85
2023-02-06T11:26:57.235Z,102642.19
2023-02-06T11:32:01.355Z,102658.38
2023-02-06T11:37:25.126Z,102667.14
2023-02-06T11:42:28.464Z,102668.04
2023-02-06T11:47:37.760Z,102672.25
2023-02-06T11:52:41.993Z,102678.82
2023-02-06T11:57:43.676Z,102680.08
2023-02-06T12:02:52.272Z,102687.21
2023-02-06T12:08:02.544Z,102684.73
2023-02-06T12:13:15.114Z,102678.76
2023-02-06T12:18:35.440Z,102679.55
2023-02-06T12:24:01.439Z,102682.18
2023-02-06T12:29:12.069Z,102680.85
2023-02-06T12:34:16.586Z,102669.94
2023-02-06T12:39:20.171Z,102658.52
2023-02-06T12:44:32.552Z,102658.89
2023-02-06T12:50:13.720Z,102663.44
2023-02-06T12:55:39.365Z,102665.73
2023-02-06T13:01:02.362Z,102672.02
2023-02-06T13:06:18.528Z,102670.84
2023-02-06T13:11:23.533Z,102667.10
2023-02-06T13:16:38.638Z,102668.13
2023-02-06T13:21:40.132Z,102673.36
2023-02-06T13:26:56.682Z,102673.17
2023-02-06T13:32:10.595Z,102671.12
2023-02-06T13:37:34.186Z,102677.44
2023-02-06T13:42:49.028Z,102678.05
2023-02-06T13:48:06.134Z,102671.48
2023-02-06T13:53:22.945Z,102669.50
2023-02-06T13:59:00.748Z,102664.75
2023-02-06T14:04:09.367Z,102660.27
2023-02-06T14:09:43.859Z,102667.52
2023-02-06T14:15:12.979Z,102663.48
2023-02-06T14:20:21.322Z,102661.55
2023-02-06T14:25:37.664Z,102655.41
2023-02-06T14:30:53.531Z,102653.11
2023-02-06T14:36:30.492Z,102650.02
2023-02-06T14:41:33.424Z,102650.16
2023-02-06T14:46:35.369Z,102653.87
2023-02-06T14:51:41.384Z,102648.20
2023-02-06T14:56:43.141Z,102647.75
2023-02-06T15:01:48.614Z,102647.17
2023-02-06T15:06:56.701Z,102655.66
2023-02-06T15:12:04.451Z,102663.36
2023-02-06T15:17:06.000Z,102668.98
2023-02-06T15:22:14.322Z,102674.23
2023-02-06T15:27:29.248Z,102680.80
2023-02-06T15:32:35.125Z,102681.16
2023-02-06T15:37:36.656Z,102681.23
2023-02-06T15:42:38.499Z,102681.02
2023-02-06T15:47:41.548Z,102683.39
2023-02-06T15:52:47.099Z,102679.80
2023-02-06T15:57:49.850Z,102678.14
2023-02-06T16:02:53.585Z,102680.44
2023-02-06T16:07:55.468Z,102688.45
2023-02-06T16:13:01.589Z,102688.63
2023-02-06T16:18:40.187Z,102693.15
2023-02-06T16:24:06.906Z,102707.73
2023-02-06T16:29:08.401Z,102725.18
2023-02-06T16:34:29.506Z,102724.70
2023-02-06T16:39:30.989Z,102719.67
2023-02-06T16:44:44.067Z,102722.23
2023-02-06T16:49:49.953Z,102728.94
2023-02-06T16:54:52.791Z,102735.14
2023-02-06T16:59:54.828Z,102736.05
2023-02-06T17:04:56.713Z,102731.81
2023-02-06T17:09:58.865Z,102730.04
2023-02-06T17:15:00.380Z,102731.08
2023-02-06T17:20:02.151Z,102736.23
2023-02-06T17:25:03.820Z,102739.97
2023-02-06T17:30:06.209Z,102740.54
2023-02-06T17:35:08.545Z,102732.05
2023-02-06T17:40:18.080Z,102734.80
2023-02-06T17:45:19.897Z,102734.83
2023-02-06T17:50:25.074Z,102734.00
2023-02-06T17:55:28.360Z,102734.44
2023-02-06T18:00:30.458Z,102736.86
2023-02-06T18:05:32.560Z,102740.86
2023-02-06T18:10:34.365Z,102752.16
2023-02-06T18:15:35.880Z,102753.02
2023-02-06T18:20:37.680Z,102745.61
2023-02-06T18:25:43.187Z,102745.67
2023-02-06T18:30:45.560Z,102749.00
2023-02-06T18:35:50.655Z,102752.98
2023-02-06T18:40:52.496Z,102748.85
2023-02-06T18:45:54.040Z,102749.87
2023-02-06T18:50:58.127Z,102753.46
2023-02-06T18:56:01.504Z,102755.46
2023-02-06T19:01:11.290Z,102758.55
2023-02-06T19:06:18.830Z,102760.01
2023-02-06T19:11:20.360Z,102765.36
2023-02-06T19:16:22.113Z,102767.42
2023-02-06T19:21:25.318Z,102772.70
2023-02-06T19:26:28.473Z,102774.48
2023-02-06T19:31:31.987Z,102766.64
2023-02-06T19:36:33.894Z,102773.02
2023-02-06T19:41:36.116Z,102778.31
2023-02-06T19:46:38.200Z,102779.71
2023-02-06T19:51:44.479Z,102771.66
2023-02-06T19:56:47.777Z,102770.85
2023-02-06T20:01:52.332Z,102770.14
2023-02-06T20:06:55.882Z,102770.35
2023-02-06T20:11:57.946Z,102780.85
2023-02-06T20:16:59.574Z,102788.02
2023-02-06T20:22:02.588Z,102784.29
2023-02-06T20:27:07.744Z,102762.78
2023-02-06T20:32:11.090Z,102771.59
2023-02-06T20:37:13.436Z,102775.49
2023-02-06T20:42:15.633Z,102772.96
2023-02-06T20:47:17.213Z,102769.27
2023-02-06T20:52:19.426Z,102772.89
2023-02-06T20:57:22.340Z,102774.70
2023-02-06T21:02:24.512Z,102786.40
2023-02-06T21:07:26.116Z,102804.86
2023-02-06T21:12:27.641Z,102812.49
2023-02-06T21:17:29.179Z,102819.73
2023-02-06T21:22:30.645Z,102822.06
2023-02-06T21:27:32.438Z,102819.97
2023-02-06T21:32:33.984Z,102823.42
2023-02-06T21:37:35.561Z,102820.19
2023-02-06T21:42:37.069Z,102815.63
2023-02-06T21:47:38.572Z,102805.73
2023-02-06T21:52:40.253Z,102789.57
2023-02-06T21:57:41.875Z,102794.09
2023-02-06T22:02:43.809Z,102793.67
2023-02-06T22:07:45.400Z,102793.15
2023-02-06T22:12:49.956Z,102788.70
2023-02-06T22:17:51.501Z,102789.11
2023-02-06T22:22:54.219Z,102793.32
2023-02-06T22:27:55.708Z,102787.67
2023-02-06T22:32:57.598Z,102785.27
2023-02-06T22:37:59.067Z,102774.96
2023-02-06T22:43:00.608Z,102765.98
2023-02-06T22:48:02.225Z,102763.33
2023-02-06T22:53:22.500Z,102758.70
2023-02-06T22:58:24.019Z,102754.66
2023-02-06T23:03:25.531Z,102750.34
2023-02-06T23:08:27.083Z,102745.98
2023-02-06T23:13:29.384Z,102742.34
2023-02-06T23:18:31.765Z,102752.59
2023-02-06T23:23:33.921Z,102755.83
2023-02-06T23:28:35.540Z,102760.76
2023-02-06T23:33:37.597Z,102757.31
2023-02-06T23:38:39.704Z,102754.09
2023-02-06T23:43:42.104Z,102751.70
2023-02-06T23:48:43.627Z,102751.79
2023-02-06T23:53:45.180Z,102748.88
2023-02-06T23:58:47.376Z,102751.91
